createdAt,value
2018-10-11T00:00:25.016Z,34.20
2018-10-11T00:02:53.134Z,34.43
2018-10-11T00:05:21.219Z,34.03
2018-10-11T00:07:49.275Z,34.37
2018-10-11T00:10:17.369Z,38.00
2018-10-11T00:12:45.418Z,31.63
2018-10-11T00:15:13.489Z,34.33
2018-10-11T00:17:41.553Z,37.00
2018-10-11T00:20:09.690Z,36.67
2018-10-11T00:22:37.729Z,36.20
2018-10-11T00:25:05.809Z,40.67
2018-10-11T00:27:33.867Z,32.93
2018-10-11T00:30:01.957Z,32.93
2018-10-11T00:32:30.037Z,34.73
2018-10-11T00:34:58.103Z,35.90
2018-10-11T00:37:26.174Z,34.00
2018-10-11T00:39:54.227Z,32.67
2018-10-11T00:42:22.332Z,36.93
2018-10-11T00:44:50.431Z,37.20
2018-10-11T00:47:18.506Z,35.83
2018-10-11T00:49:46.580Z,33.33
2018-10-11T00:52:14.667Z,38.57
2018-10-11T00:54:42.740Z,33.97
2018-10-11T00:57:10.812Z,34.87
2018-10-11T00:59:38.866Z,37.63
2018-10-11T01:02:06.978Z,35.47
2018-10-11T01:04:35.037Z,35.60
2018-10-11T01:07:03.098Z,37.10
2018-10-11T01:09:31.356Z,35.43
2018-10-11T01:11:59.270Z,32.70
2018-10-11T01:14:27.351Z,33.00
2018-10-11T01:16:55.460Z,35.77
2018-10-11T01:19:23.535Z,33.27
2018-10-11T01:21:51.584Z,34.53
2018-10-11T01:24:19.631Z,37.47
2018-10-11T01:26:47.739Z,33.63
2018-10-11T01:29:15.835Z,38.90
2018-10-11T01:31:44.008Z,34.93
2018-10-11T01:34:12.120Z,34.23
2018-10-11T01:36:40.354Z,32.10
2018-10-11T01:39:08.442Z,35.77
2018-10-11T01:41:36.525Z,37.40
2018-10-11T01:44:04.596Z,35.87
2018-10-11T01:46:32.683Z,34.80
2018-10-11T01:49:00.756Z,33.90
2018-10-11T01:51:28.842Z,31.40
2018-10-11T01:53:56.928Z,36.60
2018-10-11T01:56:25.000Z,32.40
2018-10-11T01:58:53.059Z,33.77
2018-10-11T02:01:21.199Z,34.80
2018-10-11T02:03:49.281Z,31.47
2018-10-11T02:06:17.353Z,34.90
2018-10-11T02:08:45.420Z,33.80
2018-10-11T02:11:13.529Z,33.30
2018-10-11T02:13:41.601Z,33.83
2018-10-11T02:16:09.830Z,35.47
2018-10-11T02:18:37.907Z,36.13
2018-10-11T02:21:06.415Z,35.53
2018-10-11T02:23:34.864Z,37.80
2018-10-11T02:26:02.962Z,31.77
2018-10-11T02:28:31.109Z,34.97
2018-10-11T02:30:59.211Z,33.33
2018-10-11T02:33:27.302Z,34.27
2018-10-11T02:35:55.750Z,34.20
2018-10-11T02:38:23.876Z,35.17
2018-10-11T02:40:51.941Z,36.10
2018-10-11T02:43:20.010Z,33.67
2018-10-11T02:45:48.115Z,35.10
2018-10-11T02:48:16.191Z,32.67
2018-10-11T02:50:44.325Z,34.77
2018-10-11T02:53:12.506Z,35.27
2018-10-11T02:55:40.895Z,32.87
2018-10-11T02:58:20.565Z,33.73
2018-10-11T03:00:48.653Z,34.13
2018-10-11T03:03:19.638Z,36.47
2018-10-11T03:05:47.711Z,38.63
2018-10-11T03:08:16.184Z,36.80
2018-10-11T03:10:44.443Z,35.13
2018-10-11T03:13:13.743Z,35.30
2018-10-11T03:15:42.721Z,39.57
2018-10-11T03:18:11.423Z,31.50
2018-10-11T03:20:40.411Z,33.77
2018-10-11T03:23:09.044Z,34.27
2018-10-11T03:25:37.113Z,31.80
2018-10-11T03:28:05.224Z,33.13
2018-10-11T03:30:33.301Z,34.63
2018-10-11T03:33:01.425Z,33.90
2018-10-11T03:35:29.507Z,37.80
2018-10-11T03:37:57.992Z,30.43
2018-10-11T03:40:26.528Z,33.60
2018-10-11T03:42:54.821Z,29.80
2018-10-11T03:45:22.857Z,36.53
2018-10-11T03:47:51.015Z,34.50
2018-10-11T03:50:19.092Z,32.20
2018-10-11T03:52:47.225Z,31.57
2018-10-11T03:55:15.281Z,31.67
2018-10-11T03:57:43.399Z,37.77
2018-10-11T04:00:11.464Z,36.40
2018-10-11T04:02:39.698Z,32.93
2018-10-11T04:05:07.806Z,33.97
2018-10-11T04:07:35.970Z,33.33
2018-10-11T04:10:04.017Z,34.40
2018-10-11T04:12:32.105Z,34.97
2018-10-11T04:15:00.231Z,33.00
2018-10-11T04:17:28.451Z,34.43
2018-10-11T04:19:56.869Z,33.67
2018-10-11T04:22:25.036Z,35.07
2018-10-11T04:24:53.118Z,31.67
2018-10-11T04:27:21.272Z,35.97
2018-10-11T04:29:49.373Z,37.30
2018-10-11T04:32:17.458Z,35.73
2018-10-11T04:34:45.571Z,32.10
2018-10-11T04:37:13.704Z,31.73
2018-10-11T04:39:41.923Z,33.63
2018-10-11T04:42:10.602Z,34.03
2018-10-11T04:44:38.711Z,33.50
2018-10-11T04:47:07.465Z,37.23
2018-10-11T04:49:35.852Z,37.53
2018-10-11T04:52:04.003Z,33.67
2018-10-11T04:54:32.103Z,34.63
2018-10-11T04:57:00.192Z,33.47
2018-10-11T04:59:28.271Z,35.93
2018-10-11T05:01:56.360Z,32.10
2018-10-11T05:04:24.475Z,31.80
2018-10-11T05:06:52.548Z,37.57
2018-10-11T05:09:20.813Z,33.10
2018-10-11T05:11:48.897Z,30.83
2018-10-11T05:14:16.970Z,33.40
2018-10-11T05:16:45.089Z,36.17
2018-10-11T05:19:13.198Z,29.43
2018-10-11T05:21:41.412Z,33.90
2018-10-11T05:24:09.498Z,32.63
2018-10-11T05:26:37.578Z,28.63
2018-10-11T05:29:05.677Z,28.07
2018-10-11T05:31:33.828Z,33.67
2018-10-11T05:34:01.931Z,31.90
2018-10-11T05:36:30.206Z,32.30
2018-10-11T05:38:58.427Z,29.47
2018-10-11T05:41:26.628Z,30.40
2018-10-11T05:43:54.715Z,30.20
2018-10-11T05:46:31.473Z,38.60
2018-10-11T05:49:00.197Z,44.07
2018-10-11T05:51:29.118Z,36.00
2018-10-11T05:53:57.751Z,40.27
2018-10-11T05:56:28.471Z,32.03
2018-10-11T05:58:56.797Z,28.50
2018-10-11T06:01:25.262Z,28.90
2018-10-11T06:03:53.854Z,33.80
2018-10-11T06:06:21.913Z,26.77
2018-10-11T06:08:50.056Z,29.30
2018-10-11T06:11:18.202Z,28.40
2018-10-11T06:13:47.045Z,28.70
2018-10-11T06:16:15.317Z,30.13
2018-10-11T06:18:44.025Z,28.03
2018-10-11T06:21:12.284Z,26.00
2018-10-11T06:23:40.552Z,27.53
2018-10-11T06:26:08.623Z,31.33
2018-10-11T06:28:36.719Z,29.17
2018-10-11T06:31:04.788Z,29.63
2018-10-11T06:33:32.865Z,30.87
2018-10-11T06:36:00.950Z,29.10
2018-10-11T06:38:29.317Z,29.13
2018-10-11T06:40:58.143Z,27.13
2018-10-11T06:43:26.264Z,28.33
2018-10-11T06:45:54.348Z,26.60
2018-10-11T06:48:22.433Z,30.37
2018-10-11T06:50:50.605Z,26.27
2018-10-11T06:53:18.729Z,28.57
2018-10-11T06:55:46.845Z,25.83
2018-10-11T06:58:14.932Z,26.77
2018-10-11T07:00:43.024Z,30.10
2018-10-11T07:03:11.116Z,27.80
2018-10-11T07:05:39.206Z,31.67
2018-10-11T07:08:07.262Z,23.77
2018-10-11T07:10:35.334Z,27.97
2018-10-11T07:13:03.481Z,27.00
2018-10-11T07:15:31.568Z,28.90
2018-10-11T07:17:59.642Z,29.03
2018-10-11T07:20:27.734Z,26.67
2018-10-11T07:22:55.826Z,24.23
2018-10-11T07:25:23.923Z,26.60
2018-10-11T07:27:52.009Z,27.97
2018-10-11T07:30:20.116Z,28.77
2018-10-11T07:32:48.163Z,29.80
2018-10-11T07:35:16.313Z,27.47
2018-10-11T07:37:44.328Z,25.03
2018-10-11T07:40:12.475Z,26.17
2018-10-11T07:42:40.577Z,24.23
2018-10-11T07:45:08.675Z,23.37
2018-10-11T07:47:36.790Z,28.43
2018-10-11T07:50:05.325Z,25.60
2018-10-11T07:52:33.409Z,23.07
2018-10-11T07:55:01.489Z,25.47
2018-10-11T07:57:29.531Z,22.93
2018-10-11T07:59:57.660Z,24.90
2018-10-11T08:02:25.738Z,24.73
2018-10-11T08:04:53.845Z,25.37
2018-10-11T08:07:21.953Z,23.03
2018-10-11T08:09:50.029Z,27.60
2018-10-11T08:12:18.092Z,23.70
2018-10-11T08:14:46.169Z,21.43
2018-10-11T08:17:14.593Z,22.17
2018-10-11T08:19:42.433Z,20.63
2018-10-11T08:22:10.489Z,20.90
2018-10-11T08:24:38.577Z,26.60
2018-10-11T08:27:06.747Z,23.50
2018-10-11T08:29:34.791Z,21.60
2018-10-11T08:32:02.948Z,27.27
2018-10-11T08:34:31.028Z,20.33
2018-10-11T08:36:59.108Z,24.47
2018-10-11T08:39:27.238Z,24.80
2018-10-11T08:41:55.317Z,28.30
2018-10-11T08:44:23.386Z,27.63
2018-10-11T08:46:51.540Z,21.10
2018-10-11T08:49:19.656Z,23.53
2018-10-11T08:51:47.690Z,23.40
2018-10-11T08:54:50.775Z,21.13
2018-10-11T08:57:19.672Z,23.03
2018-10-11T08:59:47.833Z,21.20
2018-10-11T09:02:15.960Z,21.53
2018-10-11T09:04:44.397Z,23.20
2018-10-11T09:07:12.519Z,20.57
2018-10-11T09:09:40.690Z,16.67
2018-10-11T09:12:08.716Z,22.47
2018-10-11T09:14:43.360Z,18.03
2018-10-11T09:17:11.496Z,20.03
2018-10-11T09:19:39.576Z,25.53
2018-10-11T09:22:07.664Z,21.57
2018-10-11T09:24:35.755Z,30.30
2018-10-11T09:27:03.888Z,20.03
2018-10-11T09:29:32.092Z,19.43
2018-10-11T09:32:00.220Z,23.80
2018-10-11T09:34:28.327Z,22.80
2018-10-11T09:36:56.423Z,20.93
2018-10-11T09:39:24.532Z,18.43
2018-10-11T09:41:52.601Z,21.27
2018-10-11T09:44:20.704Z,19.17
2018-10-11T09:46:48.805Z,18.10
2018-10-11T09:49:16.909Z,23.93
2018-10-11T09:51:44.998Z,16.30
2018-10-11T09:54:13.069Z,20.10
2018-10-11T09:57:50.130Z,18.47
2018-10-11T10:00:23.753Z,16.67
2018-10-11T10:02:52.185Z,16.20
2018-10-11T10:05:20.199Z,19.13
2018-10-11T10:07:48.475Z,18.00
2018-10-11T10:10:16.573Z,20.23
2018-10-11T10:12:44.757Z,16.23
2018-10-11T10:15:12.822Z,16.73
2018-10-11T10:17:40.900Z,18.40
2018-10-11T10:20:08.995Z,23.57
2018-10-11T10:22:37.079Z,17.07
2018-10-11T10:25:05.159Z,17.83
2018-10-11T10:27:33.357Z,16.87
2018-10-11T10:30:05.613Z,19.87
2018-10-11T10:32:33.716Z,16.70
2018-10-11T10:35:01.776Z,16.63
2018-10-11T10:37:29.886Z,20.47
2018-10-11T10:39:58.007Z,19.70
2018-10-11T10:42:26.093Z,17.67
2018-10-11T10:44:54.246Z,20.87
2018-10-11T10:47:22.354Z,18.13
2018-10-11T10:49:57.165Z,16.97
2018-10-11T10:52:25.249Z,16.83
2018-10-11T10:54:53.338Z,19.17
2018-10-11T10:57:21.400Z,20.93
2018-10-11T10:59:49.503Z,19.43
2018-10-11T11:02:17.596Z,16.97
2018-10-11T11:04:45.692Z,19.40
2018-10-11T11:07:13.860Z,21.07
2018-10-11T11:09:41.938Z,19.53
2018-10-11T11:12:10.046Z,22.10
2018-10-11T11:14:38.131Z,18.23
2018-10-11T11:17:06.223Z,16.77
2018-10-11T11:19:34.300Z,18.03
2018-10-11T11:22:02.407Z,16.77
2018-10-11T11:24:30.472Z,15.80
2018-10-11T11:26:58.548Z,17.53
2018-10-11T11:29:26.674Z,14.57
2018-10-11T11:31:54.884Z,15.33
2018-10-11T11:34:22.972Z,17.10
2018-10-11T11:36:51.062Z,16.30
2018-10-11T11:39:19.196Z,14.77
2018-10-11T11:41:47.293Z,15.20
2018-10-11T11:44:15.410Z,15.43
2018-10-11T11:46:43.476Z,23.33
2018-10-11T11:49:11.596Z,19.90
2018-10-11T11:51:39.697Z,17.97
2018-10-11T11:54:13.250Z,18.63
2018-10-11T11:56:41.311Z,16.37
2018-10-11T11:59:09.475Z,16.40
2018-10-11T12:01:37.669Z,13.30
2018-10-11T12:04:05.754Z,19.97
2018-10-11T12:06:33.821Z,15.23
2018-10-11T12:09:01.932Z,14.17
2018-10-11T12:11:30.022Z,15.53
2018-10-11T12:13:58.112Z,18.23
2018-10-11T12:16:26.222Z,16.20
2018-10-11T12:18:55.189Z,20.80
2018-10-11T12:21:23.245Z,15.93
2018-10-11T12:23:51.362Z,16.07
2018-10-11T12:26:19.485Z,18.30
2018-10-11T12:28:47.588Z,16.23
2018-10-11T12:31:15.628Z,14.80
2018-10-11T12:33:43.773Z,17.10
2018-10-11T12:36:11.879Z,21.63
2018-10-11T12:38:40.012Z,14.43
2018-10-11T12:41:08.080Z,15.27
2018-10-11T12:43:36.215Z,17.23
2018-10-11T12:46:04.285Z,13.67
2018-10-11T12:48:32.439Z,14.93
2018-10-11T12:51:00.793Z,19.83
2018-10-11T12:53:28.884Z,17.47
2018-10-11T12:55:56.969Z,15.60
2018-10-11T12:58:25.067Z,15.10
2018-10-11T13:00:53.212Z,18.07
2018-10-11T13:03:21.383Z,15.33
2018-10-11T13:05:49.435Z,16.40
2018-10-11T13:08:17.532Z,17.10
2018-10-11T13:10:45.621Z,15.60
2018-10-11T13:13:13.723Z,14.77
2018-10-11T13:15:42.278Z,14.63
2018-10-11T13:18:09.991Z,18.53
2018-10-11T13:20:38.069Z,18.53
2018-10-11T13:23:09.775Z,15.30
2018-10-11T13:25:34.302Z,17.23
2018-10-11T13:28:02.371Z,15.00
2018-10-11T13:30:30.480Z,13.80
2018-10-11T13:32:58.622Z,14.43
2018-10-11T13:35:26.722Z,17.17
2018-10-11T13:37:54.776Z,19.07
2018-10-11T13:40:22.891Z,17.50
2018-10-11T13:42:50.949Z,20.27
2018-10-11T13:45:19.039Z,21.13
2018-10-11T13:47:47.188Z,12.77
2018-10-11T13:50:15.321Z,28.50
2018-10-11T13:52:43.434Z,17.33
2018-10-11T13:55:14.189Z,17.90
2018-10-11T13:57:39.619Z,15.57
2018-10-11T14:00:08.251Z,17.00
2018-10-11T14:02:36.392Z,15.17
2018-10-11T14:05:04.753Z,14.43
2018-10-11T14:07:32.825Z,15.77
2018-10-11T14:10:02.000Z,20.63
2018-10-11T14:12:30.097Z,14.17
2018-10-11T14:14:58.211Z,16.70
2018-10-11T14:17:26.274Z,17.20
2018-10-11T14:19:54.378Z,21.83
2018-10-11T14:22:22.434Z,16.33
2018-10-11T14:24:50.552Z,14.17
2018-10-11T14:27:18.621Z,18.77
2018-10-11T14:29:46.740Z,17.67
2018-10-11T14:32:14.813Z,17.13
2018-10-11T14:34:42.917Z,11.63
2018-10-11T14:37:11.167Z,17.43
2018-10-11T14:39:39.184Z,15.27
2018-10-11T14:42:07.737Z,12.67
2018-10-11T14:44:35.736Z,12.77
2018-10-11T14:47:03.896Z,13.70
2018-10-11T14:49:31.969Z,13.93
2018-10-11T14:52:00.106Z,12.83
2018-10-11T14:54:30.860Z,19.70
2018-10-11T14:56:59.012Z,16.10
2018-10-11T14:59:27.266Z,13.97
2018-10-11T15:01:55.343Z,13.40
2018-10-11T15:04:23.431Z,15.03
2018-10-11T15:06:51.648Z,18.30
2018-10-11T15:09:19.705Z,14.03
2018-10-11T15:11:47.788Z,16.50
2018-10-11T15:14:15.859Z,15.23
2018-10-11T15:16:43.936Z,14.63
2018-10-11T15:19:11.995Z,12.93
2018-10-11T15:21:40.068Z,14.20
2018-10-11T15:24:08.164Z,13.57
2018-10-11T15:26:36.265Z,15.40
2018-10-11T15:29:04.342Z,17.57
2018-10-11T15:31:32.452Z,15.03
2018-10-11T15:34:00.690Z,15.50
2018-10-11T15:36:28.804Z,17.67
2018-10-11T15:38:56.913Z,16.80
2018-10-11T15:41:25.008Z,12.43
2018-10-11T15:43:53.093Z,13.93
2018-10-11T15:46:21.194Z,16.10
2018-10-11T15:48:49.268Z,12.80
2018-10-11T15:51:17.358Z,16.10
2018-10-11T15:53:45.416Z,11.73
2018-10-11T15:56:13.519Z,15.03
2018-10-11T15:58:41.605Z,15.03
2018-10-11T16:01:10.043Z,13.70
2018-10-11T16:03:38.113Z,14.47
2018-10-11T16:06:06.214Z,12.07
2018-10-11T16:08:34.396Z,13.70
2018-10-11T16:11:02.513Z,13.63
2018-10-11T16:13:30.600Z,12.97
2018-10-11T16:15:58.681Z,11.20
2018-10-11T16:18:26.769Z,15.50
2018-10-11T16:20:54.987Z,12.57
2018-10-11T16:23:23.079Z,17.17
2018-10-11T16:25:51.214Z,12.60
2018-10-11T16:28:19.303Z,14.70
2018-10-11T16:30:47.415Z,15.23
2018-10-11T16:33:15.548Z,12.77
2018-10-11T16:35:43.670Z,15.27
2018-10-11T16:38:11.758Z,14.57
2018-10-11T16:40:40.355Z,16.20
2018-10-11T16:43:08.437Z,17.47
2018-10-11T16:45:36.563Z,13.27
2018-10-11T16:48:04.701Z,17.40
2018-10-11T16:50:33.050Z,16.40
2018-10-11T16:53:01.614Z,16.97
2018-10-11T16:55:29.743Z,15.13
2018-10-11T16:57:57.932Z,14.80
2018-10-11T17:00:26.180Z,16.40
2018-10-11T17:02:54.546Z,20.60
2018-10-11T17:05:22.660Z,16.87
2018-10-11T17:07:50.815Z,16.30
2018-10-11T17:10:20.012Z,16.43
2018-10-11T17:12:48.101Z,17.33
2018-10-11T17:15:16.189Z,17.20
2018-10-11T17:17:44.307Z,20.50
2018-10-11T17:20:12.393Z,19.33
2018-10-11T17:22:40.480Z,15.97
2018-10-11T17:25:08.563Z,18.40
2018-10-11T17:27:36.668Z,18.03
2018-10-11T17:30:04.789Z,20.63
2018-10-11T17:32:32.913Z,16.27
2018-10-11T17:35:01.069Z,20.63
2018-10-11T17:37:32.074Z,22.53
2018-10-11T17:40:00.183Z,19.10
2018-10-11T17:42:28.332Z,18.30
2018-10-11T17:44:56.415Z,18.33
2018-10-11T17:47:26.986Z,19.60
2018-10-11T17:49:55.085Z,16.97
2018-10-11T17:52:23.285Z,17.60
2018-10-11T17:58:27.566Z,20.17
2018-10-11T18:00:55.699Z,26.70
2018-10-11T18:03:23.893Z,17.90
2018-10-11T18:05:52.007Z,19.03
2018-10-11T18:08:20.118Z,18.80
2018-10-11T18:10:48.600Z,17.53
2018-10-11T18:13:16.736Z,16.67
2018-10-11T18:15:44.938Z,21.80
2018-10-11T18:18:13.424Z,18.00
2018-10-11T18:20:41.549Z,21.70
2018-10-11T18:23:09.839Z,18.07
2018-10-11T18:25:37.969Z,22.73
2018-10-11T18:28:06.159Z,20.07
2018-10-11T18:30:34.306Z,18.83
2018-10-11T18:33:02.413Z,16.33
2018-10-11T18:35:30.641Z,17.73
2018-10-11T18:37:58.896Z,22.97
2018-10-11T18:40:27.129Z,20.00
2018-10-11T18:42:55.251Z,17.57
2018-10-11T18:45:23.355Z,18.80
2018-10-11T18:47:51.594Z,18.33
2018-10-11T18:50:19.673Z,24.53
2018-10-11T18:52:47.901Z,15.40
2018-10-11T18:55:16.054Z,20.17
2018-10-11T18:57:44.240Z,17.23
2018-10-11T19:00:12.568Z,16.93
2018-10-11T19:02:40.698Z,19.47
2018-10-11T19:05:08.820Z,15.97
2018-10-11T19:07:36.916Z,16.33
2018-10-11T19:10:05.050Z,17.63
2018-10-11T19:12:33.329Z,18.70
2018-10-11T19:15:01.481Z,20.57
2018-10-11T19:17:29.884Z,15.90
2018-10-11T19:19:57.990Z,17.43
2018-10-11T19:22:26.171Z,15.33
2018-10-11T19:24:54.446Z,17.00
2018-10-11T19:27:22.544Z,18.33
2018-10-11T19:29:50.709Z,22.13
2018-10-11T19:32:18.848Z,17.80
2018-10-11T19:34:46.953Z,16.33
2018-10-11T19:37:15.106Z,20.73
2018-10-11T19:39:43.223Z,16.23
2018-10-11T19:42:11.318Z,15.33
2018-10-11T19:44:39.685Z,20.00
2018-10-11T19:47:07.797Z,19.33
2018-10-11T19:49:35.947Z,17.03
2018-10-11T19:52:04.136Z,18.27
2018-10-11T19:54:32.265Z,20.80
2018-10-11T19:57:00.354Z,15.23
2018-10-11T19:59:28.475Z,15.80
2018-10-11T20:01:56.769Z,17.20
2018-10-11T20:04:24.914Z,15.17
2018-10-11T20:06:52.991Z,18.27
2018-10-11T20:09:21.110Z,20.00
2018-10-11T20:11:49.264Z,18.40
2018-10-11T20:14:17.411Z,19.80
2018-10-11T20:16:45.689Z,16.73
2018-10-11T20:19:13.785Z,17.93
2018-10-11T20:21:41.877Z,21.23
2018-10-11T20:24:10.048Z,19.67
2018-10-11T20:26:38.106Z,21.37
2018-10-11T20:29:06.353Z,24.40
2018-10-11T20:31:34.450Z,17.70
2018-10-11T20:34:02.573Z,17.57
2018-10-11T20:36:30.771Z,19.77
2018-10-11T20:38:58.870Z,20.27
2018-10-11T20:41:27.021Z,19.07
2018-10-11T20:43:55.166Z,21.77
2018-10-11T20:46:23.215Z,17.57
2018-10-11T20:48:51.315Z,19.30
2018-10-11T20:51:19.575Z,17.50
2018-10-11T20:53:47.664Z,16.73
2018-10-11T20:56:15.817Z,17.60
2018-10-11T20:58:43.946Z,16.17
2018-10-11T21:01:12.032Z,15.13
2018-10-11T21:03:40.117Z,22.63
2018-10-11T21:06:08.203Z,16.60
2018-10-11T21:08:36.402Z,16.37
2018-10-11T21:11:04.607Z,14.00
2018-10-11T21:13:32.689Z,21.87
2018-10-11T21:16:00.792Z,17.43
2018-10-11T21:18:28.988Z,15.60
2018-10-11T21:20:57.084Z,17.13
2018-10-11T21:23:25.188Z,13.77
2018-10-11T21:25:53.365Z,16.90
2018-10-11T21:28:21.546Z,18.17
2018-10-11T21:30:49.742Z,13.53
2018-10-11T21:33:18.097Z,16.97
2018-10-11T21:35:46.221Z,16.33
2018-10-11T21:38:14.457Z,14.90
2018-10-11T21:40:42.805Z,15.87
2018-10-11T21:43:11.097Z,14.73
2018-10-11T21:45:39.258Z,15.83
2018-10-11T21:48:07.339Z,16.83
2018-10-11T21:50:35.447Z,14.67
2018-10-11T21:53:03.570Z,15.60
2018-10-11T21:55:32.719Z,16.53
2018-10-11T21:58:00.779Z,14.70
2018-10-11T22:00:34.336Z,19.87
2018-10-11T22:03:02.434Z,13.77
2018-10-11T22:05:30.548Z,15.40
2018-10-11T22:07:58.656Z,18.13
2018-10-11T22:10:26.831Z,14.63
2018-10-11T22:12:55.101Z,14.97
2018-10-11T22:15:23.447Z,14.50
2018-10-11T22:17:51.536Z,16.43
2018-10-11T22:20:19.645Z,15.87
2018-10-11T22:22:47.748Z,12.53
2018-10-11T22:25:15.840Z,15.37
2018-10-11T22:27:43.912Z,12.70
2018-10-11T22:30:12.025Z,16.70
2018-10-11T22:32:40.105Z,14.00
2018-10-11T22:35:08.337Z,16.77
2018-10-11T22:37:36.486Z,15.20
2018-10-11T22:40:04.618Z,16.43
2018-10-11T22:42:32.682Z,14.90
2018-10-11T22:45:00.755Z,16.87
2018-10-11T22:47:28.845Z,14.87
2018-10-11T22:49:56.910Z,14.13
2018-10-11T22:52:25.021Z,20.03
2018-10-11T22:54:53.246Z,14.87
2018-10-11T22:57:21.288Z,19.30
2018-10-11T22:59:49.407Z,19.07
2018-10-11T23:02:17.532Z,13.67
2018-10-11T23:04:45.595Z,14.87
2018-10-11T23:07:13.724Z,15.20
2018-10-11T23:09:41.827Z,16.43
2018-10-11T23:12:09.916Z,17.53
2018-10-11T23:14:38.233Z,15.67
2018-10-11T23:17:06.381Z,16.47
2018-10-11T23:19:34.549Z,14.97
2018-10-11T23:22:02.624Z,14.03
2018-10-11T23:24:30.725Z,13.80
2018-10-11T23:26:58.823Z,13.00
2018-10-11T23:29:26.944Z,15.70
2018-10-11T23:31:55.053Z,15.37
2018-10-11T23:34:23.141Z,19.20
2018-10-11T23:36:51.253Z,19.20
2018-10-11T23:39:19.378Z,15.33
2018-10-11T23:41:47.477Z,13.50
2018-10-11T23:44:15.596Z,15.07
2018-10-11T23:46:43.746Z,17.67
2018-10-11T23:49:11.818Z,14.17
2018-10-11T23:51:40.082Z,17.37
2018-10-11T23:54:08.515Z,18.60
2018-10-11T23:56:36.604Z,19.93
2018-10-11T23:59:04.718Z,14.30
